Ayr Alva Beach, Queensland

3:14 PM AEST on November 24, 2014 (GMT +1000)
On The Edge of The sugar cane in Ayr, Qld | Change Station
CLOSE
Current Station
Personal Weather Station
Location: Ayr, QLD
Elevation: 39 ft
Nearby Weather Stations

Elev 39 ft 19.58 °S, 147.42 °E | Updated 3 seconds ago

Scattered Clouds
Scattered Clouds
90.1 °F
Feels Like 96 °F
N
8.0
Wind Variable Wind from ESE
Gusts 15.0 mph

Today
High -- | Low -- °F
--% Chance of Precip.
Yesterday
High -- | Low -- °F
Precip. -- in
5:22 AM 6:30 PM
Waxing Crescent, 4% visible
Pressure 29.86 in
Visibility 6.2 miles
Clouds Few 2000 ft
Scattered Clouds 3500 ft
Heat Index 96 °F
Dew Point 70 °F
Humidity 52%
Rainfall 0.00 in
Snow Depth Not available.
UV 5 out of 12
Pollen Not available.
Air Quality Not available.
Flu Activity Not available.
METAR YBTL 240500Z 07017KT 9999 FEW020 SCT035 31/21 Q1011 RMK HZ

More Conditions Fewer Conditions

Pressure 29.86 in
Visibility 6.2 miles
Clouds Few 2000 ft
Scattered Clouds 3500 ft
Heat Index 96 °F
Dew Point 70 °F
Humidity 52%
Rainfall 0.00 in
Snow Depth Not available.
UV 5 out of 12
Pollen Not available.
Air Quality Not available.
Flu Activity Not available.
METAR YBTL 240500Z 07017KT 9999 FEW020 SCT035 31/21 Q1011 RMK HZ

More Conditions Fewer Conditions

10-Day Weather Forecast

Almanac

Astronomy

Nov. 24, 2014 Rise Set
Actual Time
Civil Twilight
Nautical Twilight
Astronomical Twilight
Moon
Length of Visible Light
Length of Day
Tomorrow will be .
, % of the Moon is Illuminated

Today's Extremes

Country Highs Country Lows

Community

WunderPhotos

Upload Photos

1,773,269 photos uploaded!

WunderBlogs® & News

Nearby

Air Quality

  Air Quality AQ Index Pollutant
Not available.

Snow Depth

Station Depth Elevation

Earthquake Activity

City Distance Mag. Time & Date
Minimum magnitude displayed is 2.5.

Coastal Water Temperatures

Place Temperature

Nearby Weather Stations